Meteo Giornale » Osservazioni meteo Italia » Grazzanise

ore: 08:55 - Osservazioni Meteo Grazzanise
Lat. 41° 3' N Lon. 14° 4' E Alt. 9 metri s.l.m.

poco_nuvoloso

27 °C

Poco Nuvoloso

Temp. 24 Ore

23 °C

34 °C

Nord-Est

9.3 Km/h

Dew point 21 °C

Umidità 69 %

Visibilità  10 Km

Il sole sorge alle ore 06:31

Il sole tramonta alle ore 19:35

Data e Ora Cielo e Fenomeni T °C DP °C Um. % Pres. hPa Vis. km Vento km/h
Oggi h: 08:55 poco_nuvoloso Poco Nuvoloso 27 21 69 1017 10 NE 9.3
Oggi h: 07:55 nuvoloso Nuvoloso 24 24 100 1017 10 N 9.3
Oggi h: 06:55 poco_nuvoloso Poco Nuvoloso 23 23 100 1017 10 N 7.4
Oggi h: 05:55 poco_nuvoloso Poco Nuvoloso 23 23 100 1017 10 N/NO 7.4
Oggi h: 04:55 sereno Sereno 23 23 100 1017 10 N 7.4
Oggi h: 03:55 sereno Sereno 23 20 83 1017 10 N 5.5
Oggi h: 02:55 sereno Sereno 23 23 100 1017 10 N 5.5
Oggi h: 01:55 sereno Sereno 23 23 100 1017 10 N 5.5
Oggi h: 00:55 sereno Sereno 23 23 100 1016 10 N 5.5
Ieri h: 22:55 sereno Sereno 26 25 94 1016 10 N 3.7
Ieri h: 21:55 sereno Sereno 28 24 78 1016 10 N 5.5
Ieri h: 20:55 sereno Sereno 28 24 78 1016 10 SE 9.3
Ieri h: 19:55 sereno Sereno 29 24 74 1016 10 S 7.4
Ieri h: 18:55 sereno Sereno 30 25 74 1016 10 S/SO 18.5
Ieri h: 17:55 poco_nuvoloso Poco Nuvoloso 32 25 66 1016 10 SO 20.3
Ieri h: 16:55 poco_nuvoloso Poco Nuvoloso 33 17 38 1016 10 SO 18.5
Ieri h: 15:55 poco_nuvoloso Poco Nuvoloso 33 18 41 1016 10 SO 20.3
Ieri h: 14:55 poco_nuvoloso Poco Nuvoloso 34 22 49 1016 10 S/SO 18.5
Ieri h: 13:55 poco_nuvoloso Poco Nuvoloso 34 23 52 1016 10 SO 14.8
Ieri h: 12:55 poco_nuvoloso Poco Nuvoloso 34 10 23 1016 10 S/SO 11.1
Ieri h: 11:55 sereno Sereno 32 16 38 1016 10 N 5.5
Ieri h: 10:55 sereno Sereno 31 20 52 1016 10 N/NE 7.4